sensor_id;sensor_type;location;lat;lon;timestamp;P1;durP1;ratioP1;P2;durP2;ratioP2
68319;SDS011;55168;51.120;17.024;2023-08-24T00:00:00;7.7;;;6.2;;
68319;SDS011;55168;51.120;17.024;2023-08-24T00:01:00;9.5;;;6.7;;
68319;SDS011;55168;51.120;17.024;2023-08-24T00:02:00;9.5;;;6.7;;
68319;SDS011;55168;51.120;17.024;2023-08-24T00:03:00;9.5;;;6.7;;
68319;SDS011;55168;51.120;17.024;2023-08-24T00:04:00;9.5;;;6.7;;
68319;SDS011;55168;51.120;17.024;2023-08-24T00:05:00;9.5;;;6.7;;
68319;SDS011;55168;51.120;17.024;2023-08-24T00:06:00;8.1;;;6.4;;
68319;SDS011;55168;51.120;17.024;2023-08-24T00:07:00;8.1;;;6.4;;
68319;SDS011;55168;51.120;17.024;2023-08-24T00:08:00;8.1;;;6.4;;
68319;SDS011;55168;51.120;17.024;2023-08-24T00:09:00;8.1;;;6.4;;
68319;SDS011;55168;51.120;17.024;2023-08-24T00:10:00;8.1;;;6.4;;
68319;SDS011;55168;51.120;17.024;2023-08-24T00:11:00;7.4;;;5.9;;
68319;SDS011;55168;51.120;17.024;2023-08-24T00:12:00;7.4;;;5.9;;
68319;SDS011;55168;51.120;17.024;2023-08-24T00:13:00;7.4;;;5.9;;
68319;SDS011;55168;51.120;17.024;2023-08-24T00:14:00;7.4;;;5.9;;
68319;SDS011;55168;51.120;17.024;2023-08-24T00:15:00;7.4;;;5.9;;
68319;SDS011;55168;51.120;17.024;2023-08-24T00:16:00;9.2;;;6.7;;
68319;SDS011;55168;51.120;17.024;2023-08-24T00:17:00;9.2;;;6.7;;
68319;SDS011;55168;51.120;17.024;2023-08-24T00:18:00;9.2;;;6.7;;
68319;SDS011;55168;51.120;17.024;2023-08-24T00:19:00;9.2;;;6.7;;
68319;SDS011;55168;51.120;17.024;2023-08-24T00:20:00;9.2;;;6.7;;
68319;SDS011;55168;51.120;17.024;2023-08-24T00:21:00;7.7;;;6.3;;
68319;SDS011;55168;51.120;17.024;2023-08-24T00:22:00;7.7;;;6.3;;
68319;SDS011;55168;51.120;17.024;2023-08-24T00:23:00;7.7;;;6.3;;
68319;SDS011;55168;51.120;17.024;2023-08-24T00:24:00;7.7;;;6.3;;
68319;SDS011;55168;51.120;17.024;2023-08-24T00:25:00;7.7;;;6.3;;
68319;SDS011;55168;51.120;17.024;2023-08-24T00:26:00;10.6;;;6.7;;
68319;SDS011;55168;51.120;17.024;2023-08-24T00:27:00;10.6;;;6.7;;
68319;SDS011;55168;51.120;17.024;2023-08-24T00:28:00;10.6;;;6.7;;
68319;SDS011;55168;51.120;17.024;2023-08-24T00:29:00;10.6;;;6.7;;
68319;SDS011;55168;51.120;17.024;2023-08-24T00:30:02;10.6;;;6.7;;
68319;SDS011;55168;51.120;17.024;2023-08-24T00:31:00;9.0;;;6.3;;
68319;SDS011;55168;51.120;17.024;2023-08-24T00:32:00;9.0;;;6.3;;
68319;SDS011;55168;51.120;17.024;2023-08-24T00:33:00;9.0;;;6.3;;
68319;SDS011;55168;51.120;17.024;2023-08-24T00:34:00;9.0;;;6.3;;
68319;SDS011;55168;51.120;17.024;2023-08-24T00:35:01;9.0;;;6.3;;
68319;SDS011;55168;51.120;17.024;2023-08-24T00:36:01;9.8;;;6.5;;
68319;SDS011;55168;51.120;17.024;2023-08-24T00:37:00;9.8;;;6.5;;
68319;SDS011;55168;51.120;17.024;2023-08-24T00:38:00;9.8;;;6.5;;
68319;SDS011;55168;51.120;17.024;2023-08-24T00:39:00;9.8;;;6.5;;
68319;SDS011;55168;51.120;17.024;2023-08-24T00:40:00;9.8;;;6.5;;
68319;SDS011;55168;51.120;17.024;2023-08-24T00:41:00;10.6;;;6.9;;
68319;SDS011;55168;51.120;17.024;2023-08-24T00:42:00;10.6;;;6.9;;
68319;SDS011;55168;51.120;17.024;2023-08-24T00:43:00;10.6;;;6.9;;
68319;SDS011;55168;51.120;17.024;2023-08-24T00:44:00;10.6;;;6.9;;
68319;SDS011;55168;51.120;17.024;2023-08-24T00:45:00;10.6;;;6.9;;
68319;SDS011;55168;51.120;17.024;2023-08-24T00:46:01;8.6;;;6.8;;
68319;SDS011;55168;51.120;17.024;2023-08-24T00:47:00;8.6;;;6.8;;
68319;SDS011;55168;51.120;17.024;2023-08-24T00:48:01;8.6;;;6.8;;
68319;SDS011;55168;51.120;17.024;2023-08-24T00:49:00;8.6;;;6.8;;
68319;SDS011;55168;51.120;17.024;2023-08-24T00:50:00;8.6;;;6.8;;
68319;SDS011;55168;51.120;17.024;2023-08-24T00:51:01;8.6;;;6.3;;
68319;SDS011;55168;51.120;17.024;2023-08-24T00:52:00;8.6;;;6.3;;
68319;SDS011;55168;51.120;17.024;2023-08-24T00:53:00;8.6;;;6.3;;
68319;SDS011;55168;51.120;17.024;2023-08-24T00:54:00;8.6;;;6.3;;
68319;SDS011;55168;51.120;17.024;2023-08-24T00:55:00;8.6;;;6.3;;
68319;SDS011;55168;51.120;17.024;2023-08-24T00:56:00;10.5;;;6.8;;
68319;SDS011;55168;51.120;17.024;2023-08-24T00:57:00;10.5;;;6.8;;
68319;SDS011;55168;51.120;17.024;2023-08-24T00:58:02;10.5;;;6.8;;
68319;SDS011;55168;51.120;17.024;2023-08-24T00:59:00;10.5;;;6.8;;
68319;SDS011;55168;51.120;17.024;2023-08-24T01:00:03;10.5;;;6.8;;
68319;SDS011;55168;51.120;17.024;2023-08-24T01:01:00;9.2;;;7.4;;
68319;SDS011;55168;51.120;17.024;2023-08-24T01:02:01;9.2;;;7.4;;
68319;SDS011;55168;51.120;17.024;2023-08-24T01:03:00;9.2;;;7.4;;
68319;SDS011;55168;51.120;17.024;2023-08-24T01:04:00;9.2;;;7.4;;
68319;SDS011;55168;51.120;17.024;2023-08-24T01:05:00;9.2;;;7.4;;
68319;SDS011;55168;51.120;17.024;2023-08-24T01:06:00;9.6;;;7.1;;
68319;SDS011;55168;51.120;17.024;2023-08-24T01:07:00;9.6;;;7.1;;
68319;SDS011;55168;51.120;17.024;2023-08-24T01:08:00;9.6;;;7.1;;
68319;SDS011;55168;51.120;17.024;2023-08-24T01:09:00;9.6;;;7.1;;
68319;SDS011;55168;51.120;17.024;2023-08-24T01:10:01;9.6;;;7.1;;
68319;SDS011;55168;51.120;17.024;2023-08-24T01:11:40;9.6;;;6.9;;
68319;SDS011;55168;51.120;17.024;2023-08-24T01:13:06;9.6;;;6.9;;
68319;SDS011;55168;51.120;17.024;2023-08-24T01:14:34;9.6;;;6.9;;
68319;SDS011;55168;51.120;17.024;2023-08-24T01:16:07;9.9;;;7.3;;
68319;SDS011;55168;51.120;17.024;2023-08-24T01:17:03;9.9;;;7.3;;
68319;SDS011;55168;51.120;17.024;2023-08-24T01:18:03;9.9;;;7.3;;
68319;SDS011;55168;51.120;17.024;2023-08-24T01:19:01;9.9;;;7.3;;
68319;SDS011;55168;51.120;17.024;2023-08-24T01:20:02;9.9;;;7.3;;
68319;SDS011;55168;51.120;17.024;2023-08-24T01:21:00;9.5;;;7.2;;
68319;SDS011;55168;51.120;17.024;2023-08-24T01:22:01;9.5;;;7.2;;
68319;SDS011;55168;51.120;17.024;2023-08-24T01:23:07;9.5;;;7.2;;
68319;SDS011;55168;51.120;17.024;2023-08-24T01:24:39;9.5;;;7.2;;
68319;SDS011;55168;51.120;17.024;2023-08-24T01:25:06;9.5;;;7.2;;
68319;SDS011;55168;51.120;17.024;2023-08-24T01:26:06;9.8;;;7.1;;
68319;SDS011;55168;51.120;17.024;2023-08-24T01:27:01;9.8;;;7.1;;
68319;SDS011;55168;51.120;17.024;2023-08-24T01:28:01;9.8;;;7.1;;
68319;SDS011;55168;51.120;17.024;2023-08-24T01:29:01;9.8;;;7.1;;
68319;SDS011;55168;51.120;17.024;2023-08-24T01:30:01;9.8;;;7.1;;
68319;SDS011;55168;51.120;17.024;2023-08-24T01:31:00;8.0;;;6.6;;
68319;SDS011;55168;51.120;17.024;2023-08-24T01:32:00;8.0;;;6.6;;
68319;SDS011;55168;51.120;17.024;2023-08-24T01:33:02;8.0;;;6.6;;
68319;SDS011;55168;51.120;17.024;2023-08-24T01:34:00;8.0;;;6.6;;
68319;SDS011;55168;51.120;17.024;2023-08-24T01:35:03;8.0;;;6.6;;
68319;SDS011;55168;51.120;17.024;2023-08-24T01:36:00;9.7;;;6.7;;
68319;SDS011;55168;51.120;17.024;2023-08-24T01:37:01;9.7;;;6.7;;
68319;SDS011;55168;51.120;17.024;2023-08-24T01:38:00;9.7;;;6.7;;
68319;SDS011;55168;51.120;17.024;2023-08-24T01:39:14;9.7;;;6.7;;
68319;SDS011;55168;51.120;17.024;2023-08-24T01:40:05;9.7;;;6.7;;
68319;SDS011;55168;51.120;17.024;2023-08-24T01:41:19;8.9;;;6.4;;
68319;SDS011;55168;51.120;17.024;2023-08-24T01:42:02;8.9;;;6.4;;
68319;SDS011;55168;51.120;17.024;2023-08-24T01:43:03;8.9;;;6.4;;
68319;SDS011;55168;51.120;17.024;2023-08-24T01:44:01;8.9;;;6.4;;
68319;SDS011;55168;51.120;17.024;2023-08-24T01:45:03;8.9;;;6.4;;
68319;SDS011;55168;51.120;17.024;2023-08-24T01:46:03;8.7;;;6.5;;
68319;SDS011;55168;51.120;17.024;2023-08-24T01:47:02;8.7;;;6.5;;
68319;SDS011;55168;51.120;17.024;2023-08-24T01:48:02;8.7;;;6.5;;
68319;SDS011;55168;51.120;17.024;2023-08-24T01:49:00;8.7;;;6.5;;
68319;SDS011;55168;51.120;17.024;2023-08-24T01:50:01;8.7;;;6.5;;
68319;SDS011;55168;51.120;17.024;2023-08-24T01:51:01;9.5;;;6.7;;
68319;SDS011;55168;51.120;17.024;2023-08-24T01:52:01;9.5;;;6.7;;
68319;SDS011;55168;51.120;17.024;2023-08-24T01:53:00;9.5;;;6.7;;
68319;SDS011;55168;51.120;17.024;2023-08-24T01:54:00;9.5;;;6.7;;
68319;SDS011;55168;51.120;17.024;2023-08-24T01:55:00;9.5;;;6.7;;
68319;SDS011;55168;51.120;17.024;2023-08-24T01:56:00;9.3;;;6.8;;
68319;SDS011;55168;51.120;17.024;2023-08-24T01:57:00;9.3;;;6.8;;
68319;SDS011;55168;51.120;17.024;2023-08-24T01:58:00;9.3;;;6.8;;
68319;SDS011;55168;51.120;17.024;2023-08-24T01:59:00;9.3;;;6.8;;
68319;SDS011;55168;51.120;17.024;2023-08-24T02:00:00;9.3;;;6.8;;
68319;SDS011;55168;51.120;17.024;2023-08-24T02:01:00;7.5;;;6.6;;
68319;SDS011;55168;51.120;17.024;2023-08-24T02:02:00;7.5;;;6.6;;
68319;SDS011;55168;51.120;17.024;2023-08-24T02:03:00;7.5;;;6.6;;
68319;SDS011;55168;51.120;17.024;2023-08-24T02:04:00;7.5;;;6.6;;
68319;SDS011;55168;51.120;17.024;2023-08-24T02:05:00;7.5;;;6.6;;
68319;SDS011;55168;51.120;17.024;2023-08-24T02:06:00;9.5;;;7.9;;
68319;SDS011;55168;51.120;17.024;2023-08-24T02:07:00;9.5;;;7.9;;
68319;SDS011;55168;51.120;17.024;2023-08-24T02:08:00;9.5;;;7.9;;
68319;SDS011;55168;51.120;17.024;2023-08-24T02:09:00;9.5;;;7.9;;
68319;SDS011;55168;51.120;17.024;2023-08-24T02:10:00;9.5;;;7.9;;
68319;SDS011;55168;51.120;17.024;2023-08-24T02:11:00;9.5;;;7.9;;
68319;SDS011;55168;51.120;17.024;2023-08-24T02:12:00;9.5;;;7.9;;
68319;SDS011;55168;51.120;17.024;2023-08-24T02:13:00;9.5;;;7.9;;
68319;SDS011;55168;51.120;17.024;2023-08-24T02:14:00;9.5;;;7.9;;
68319;SDS011;55168;51.120;17.024;2023-08-24T02:15:00;9.5;;;7.9;;
68319;SDS011;55168;51.120;17.024;2023-08-24T02:16:01;9.6;;;7.9;;
68319;SDS011;55168;51.120;17.024;2023-08-24T02:17:00;9.6;;;7.9;;
68319;SDS011;55168;51.120;17.024;2023-08-24T02:18:00;9.6;;;7.9;;
68319;SDS011;55168;51.120;17.024;2023-08-24T02:19:00;9.6;;;7.9;;
68319;SDS011;55168;51.120;17.024;2023-08-24T02:20:00;9.6;;;7.9;;
68319;SDS011;55168;51.120;17.024;2023-08-24T02:21:00;10.8;;;7.9;;
68319;SDS011;55168;51.120;17.024;2023-08-24T02:22:00;10.8;;;7.9;;
68319;SDS011;55168;51.120;17.024;2023-08-24T02:23:00;10.8;;;7.9;;
68319;SDS011;55168;51.120;17.024;2023-08-24T02:24:00;10.8;;;7.9;;
68319;SDS011;55168;51.120;17.024;2023-08-24T02:25:00;10.8;;;7.9;;
68319;SDS011;55168;51.120;17.024;2023-08-24T02:26:00;13.8;;;8.3;;
68319;SDS011;55168;51.120;17.024;2023-08-24T02:27:00;13.8;;;8.3;;
68319;SDS011;55168;51.120;17.024;2023-08-24T02:28:00;13.8;;;8.3;;
68319;SDS011;55168;51.120;17.024;2023-08-24T02:29:00;13.8;;;8.3;;
68319;SDS011;55168;51.120;17.024;2023-08-24T02:30:00;13.8;;;8.3;;
68319;SDS011;55168;51.120;17.024;2023-08-24T02:31:01;10.3;;;7.8;;
68319;SDS011;55168;51.120;17.024;2023-08-24T02:32:00;10.3;;;7.8;;
68319;SDS011;55168;51.120;17.024;2023-08-24T02:33:00;10.3;;;7.8;;
68319;SDS011;55168;51.120;17.024;2023-08-24T02:34:00;10.3;;;7.8;;
68319;SDS011;55168;51.120;17.024;2023-08-24T02:35:00;10.3;;;7.8;;
68319;SDS011;55168;51.120;17.024;2023-08-24T02:36:00;10.9;;;8.1;;
68319;SDS011;55168;51.120;17.024;2023-08-24T02:37:00;10.9;;;8.1;;
68319;SDS011;55168;51.120;17.024;2023-08-24T02:38:00;10.9;;;8.1;;
68319;SDS011;55168;51.120;17.024;2023-08-24T02:39:00;10.9;;;8.1;;
68319;SDS011;55168;51.120;17.024;2023-08-24T02:40:00;10.9;;;8.1;;
68319;SDS011;55168;51.120;17.024;2023-08-24T02:41:02;8.8;;;7.9;;
68319;SDS011;55168;51.120;17.024;2023-08-24T02:42:00;8.8;;;7.9;;
68319;SDS011;55168;51.120;17.024;2023-08-24T02:43:00;8.8;;;7.9;;
68319;SDS011;55168;51.120;17.024;2023-08-24T02:44:00;8.8;;;7.9;;
68319;SDS011;55168;51.120;17.024;2023-08-24T02:45:00;8.8;;;7.9;;
68319;SDS011;55168;51.120;17.024;2023-08-24T02:46:01;9.6;;;7.7;;
68319;SDS011;55168;51.120;17.024;2023-08-24T02:47:00;9.6;;;7.7;;
68319;SDS011;55168;51.120;17.024;2023-08-24T02:48:00;9.6;;;7.7;;
68319;SDS011;55168;51.120;17.024;2023-08-24T02:49:00;9.6;;;7.7;;
68319;SDS011;55168;51.120;17.024;2023-08-24T02:50:00;9.6;;;7.7;;
68319;SDS011;55168;51.120;17.024;2023-08-24T02:51:02;9.4;;;8.0;;
68319;SDS011;55168;51.120;17.024;2023-08-24T02:52:00;9.4;;;8.0;;
68319;SDS011;55168;51.120;17.024;2023-08-24T02:53:00;9.4;;;8.0;;
68319;SDS011;55168;51.120;17.024;2023-08-24T02:54:00;9.4;;;8.0;;
68319;SDS011;55168;51.120;17.024;2023-08-24T02:55:00;9.4;;;8.0;;
68319;SDS011;55168;51.120;17.024;2023-08-24T02:56:00;9.2;;;7.9;;
68319;SDS011;55168;51.120;17.024;2023-08-24T02:57:00;9.2;;;7.9;;
68319;SDS011;55168;51.120;17.024;2023-08-24T02:58:00;9.2;;;7.9;;
68319;SDS011;55168;51.120;17.024;2023-08-24T02:59:00;9.2;;;7.9;;
68319;SDS011;55168;51.120;17.024;2023-08-24T03:00:00;9.2;;;7.9;;
68319;SDS011;55168;51.120;17.024;2023-08-24T03:01:04;10.8;;;8.3;;
68319;SDS011;55168;51.120;17.024;2023-08-24T03:02:00;10.8;;;8.3;;
68319;SDS011;55168;51.120;17.024;2023-08-24T03:03:00;10.8;;;8.3;;
68319;SDS011;55168;51.120;17.024;2023-08-24T03:04:00;10.8;;;8.3;;
68319;SDS011;55168;51.120;17.024;2023-08-24T03:05:00;10.8;;;8.3;;
68319;SDS011;55168;51.120;17.024;2023-08-24T03:06:03;9.6;;;8.2;;
68319;SDS011;55168;51.120;17.024;2023-08-24T03:07:00;9.6;;;8.2;;
68319;SDS011;55168;51.120;17.024;2023-08-24T03:08:00;9.6;;;8.2;;
68319;SDS011;55168;51.120;17.024;2023-08-24T03:09:01;9.6;;;8.2;;
68319;SDS011;55168;51.120;17.024;2023-08-24T03:10:00;9.6;;;8.2;;
68319;SDS011;55168;51.120;17.024;2023-08-24T03:11:00;10.8;;;8.9;;
68319;SDS011;55168;51.120;17.024;2023-08-24T03:12:00;10.8;;;8.9;;
68319;SDS011;55168;51.120;17.024;2023-08-24T03:13:00;10.8;;;8.9;;
68319;SDS011;55168;51.120;17.024;2023-08-24T03:14:00;10.8;;;8.9;;
68319;SDS011;55168;51.120;17.024;2023-08-24T03:15:00;10.8;;;8.9;;
68319;SDS011;55168;51.120;17.024;2023-08-24T03:16:03;10.9;;;8.6;;
68319;SDS011;55168;51.120;17.024;2023-08-24T03:17:00;10.9;;;8.6;;
68319;SDS011;55168;51.120;17.024;2023-08-24T03:18:00;10.9;;;8.6;;
68319;SDS011;55168;51.120;17.024;2023-08-24T03:19:00;10.9;;;8.6;;
68319;SDS011;55168;51.120;17.024;2023-08-24T03:20:00;10.9;;;8.6;;
68319;SDS011;55168;51.120;17.024;2023-08-24T03:21:00;11.9;;;9.6;;
68319;SDS011;55168;51.120;17.024;2023-08-24T03:22:00;11.9;;;9.6;;
68319;SDS011;55168;51.120;17.024;2023-08-24T03:23:00;11.9;;;9.6;;
68319;SDS011;55168;51.120;17.024;2023-08-24T03:24:00;11.9;;;9.6;;
68319;SDS011;55168;51.120;17.024;2023-08-24T03:25:00;11.9;;;9.6;;
68319;SDS011;55168;51.120;17.024;2023-08-24T03:26:00;10.8;;;9.1;;
68319;SDS011;55168;51.120;17.024;2023-08-24T03:27:00;10.8;;;9.1;;
68319;SDS011;55168;51.120;17.024;2023-08-24T03:28:00;10.8;;;9.1;;
68319;SDS011;55168;51.120;17.024;2023-08-24T03:29:00;10.8;;;9.1;;
68319;SDS011;55168;51.120;17.024;2023-08-24T03:30:00;10.8;;;9.1;;
68319;SDS011;55168;51.120;17.024;2023-08-24T03:31:00;9.8;;;8.8;;
68319;SDS011;55168;51.120;17.024;2023-08-24T03:32:00;9.8;;;8.8;;
68319;SDS011;55168;51.120;17.024;2023-08-24T03:33:00;9.8;;;8.8;;
68319;SDS011;55168;51.120;17.024;2023-08-24T03:34:00;9.8;;;8.8;;
68319;SDS011;55168;51.120;17.024;2023-08-24T03:35:00;9.8;;;8.8;;
68319;SDS011;55168;51.120;17.024;2023-08-24T03:36:01;10.0;;;8.7;;
68319;SDS011;55168;51.120;17.024;2023-08-24T03:37:00;10.0;;;8.7;;
68319;SDS011;55168;51.120;17.024;2023-08-24T03:38:00;10.0;;;8.7;;
68319;SDS011;55168;51.120;17.024;2023-08-24T03:39:00;10.0;;;8.7;;
68319;SDS011;55168;51.120;17.024;2023-08-24T03:40:00;10.0;;;8.7;;
68319;SDS011;55168;51.120;17.024;2023-08-24T03:41:01;9.9;;;8.2;;
68319;SDS011;55168;51.120;17.024;2023-08-24T03:42:00;9.9;;;8.2;;
68319;SDS011;55168;51.120;17.024;2023-08-24T03:43:01;9.9;;;8.2;;
68319;SDS011;55168;51.120;17.024;2023-08-24T03:44:00;9.9;;;8.2;;
68319;SDS011;55168;51.120;17.024;2023-08-24T03:45:00;9.9;;;8.2;;
68319;SDS011;55168;51.120;17.024;2023-08-24T03:46:00;12.8;;;8.6;;
68319;SDS011;55168;51.120;17.024;2023-08-24T03:47:00;12.8;;;8.6;;
68319;SDS011;55168;51.120;17.024;2023-08-24T03:48:00;12.8;;;8.6;;
68319;SDS011;55168;51.120;17.024;2023-08-24T03:49:00;12.8;;;8.6;;
68319;SDS011;55168;51.120;17.024;2023-08-24T03:50:00;12.8;;;8.6;;
68319;SDS011;55168;51.120;17.024;2023-08-24T03:51:00;11.3;;;8.3;;
68319;SDS011;55168;51.120;17.024;2023-08-24T03:52:00;11.3;;;8.3;;
68319;SDS011;55168;51.120;17.024;2023-08-24T03:53:00;11.3;;;8.3;;
68319;SDS011;55168;51.120;17.024;2023-08-24T03:54:00;11.3;;;8.3;;
68319;SDS011;55168;51.120;17.024;2023-08-24T03:55:00;11.3;;;8.3;;
68319;SDS011;55168;51.120;17.024;2023-08-24T03:56:00;9.2;;;8.2;;
68319;SDS011;55168;51.120;17.024;2023-08-24T03:57:01;9.2;;;8.2;;
68319;SDS011;55168;51.120;17.024;2023-08-24T03:58:00;9.2;;;8.2;;
68319;SDS011;55168;51.120;17.024;2023-08-24T03:59:00;9.2;;;8.2;;
68319;SDS011;55168;51.120;17.024;2023-08-24T04:00:00;9.2;;;8.2;;
68319;SDS011;55168;51.120;17.024;2023-08-24T04:01:00;12.1;;;8.4;;
68319;SDS011;55168;51.120;17.024;2023-08-24T04:02:00;12.1;;;8.4;;
68319;SDS011;55168;51.120;17.024;2023-08-24T04:03:00;12.1;;;8.4;;
68319;SDS011;55168;51.120;17.024;2023-08-24T04:04:00;12.1;;;8.4;;
68319;SDS011;55168;51.120;17.024;2023-08-24T04:05:00;12.1;;;8.4;;
68319;SDS011;55168;51.120;17.024;2023-08-24T04:06:00;9.4;;;8.0;;
68319;SDS011;55168;51.120;17.024;2023-08-24T04:07:00;9.4;;;8.0;;
68319;SDS011;55168;51.120;17.024;2023-08-24T04:08:00;9.4;;;8.0;;
68319;SDS011;55168;51.120;17.024;2023-08-24T04:09:00;9.4;;;8.0;;
68319;SDS011;55168;51.120;17.024;2023-08-24T04:10:00;9.4;;;8.0;;
68319;SDS011;55168;51.120;17.024;2023-08-24T04:11:00;10.7;;;7.9;;
68319;SDS011;55168;51.120;17.024;2023-08-24T04:12:00;10.7;;;7.9;;
68319;SDS011;55168;51.120;17.024;2023-08-24T04:13:00;10.7;;;7.9;;
68319;SDS011;55168;51.120;17.024;2023-08-24T04:14:00;10.7;;;7.9;;
68319;SDS011;55168;51.120;17.024;2023-08-24T04:15:00;10.7;;;7.9;;
68319;SDS011;55168;51.120;17.024;2023-08-24T04:16:00;9.6;;;7.8;;
68319;SDS011;55168;51.120;17.024;2023-08-24T04:17:00;9.6;;;7.8;;
68319;SDS011;55168;51.120;17.024;2023-08-24T04:18:00;9.6;;;7.8;;
68319;SDS011;55168;51.120;17.024;2023-08-24T04:19:00;9.6;;;7.8;;
68319;SDS011;55168;51.120;17.024;2023-08-24T04:20:00;9.6;;;7.8;;
68319;SDS011;55168;51.120;17.024;2023-08-24T04:21:00;11.3;;;8.1;;
68319;SDS011;55168;51.120;17.024;2023-08-24T04:22:00;11.3;;;8.1;;
68319;SDS011;55168;51.120;17.024;2023-08-24T04:23:01;11.3;;;8.1;;
68319;SDS011;55168;51.120;17.024;2023-08-24T04:24:00;11.3;;;8.1;;
68319;SDS011;55168;51.120;17.024;2023-08-24T04:25:00;11.3;;;8.1;;
68319;SDS011;55168;51.120;17.024;2023-08-24T04:26:00;11.4;;;8.0;;
68319;SDS011;55168;51.120;17.024;2023-08-24T04:27:00;11.4;;;8.0;;
68319;SDS011;55168;51.120;17.024;2023-08-24T04:28:00;11.4;;;8.0;;
68319;SDS011;55168;51.120;17.024;2023-08-24T04:29:00;11.4;;;8.0;;
68319;SDS011;55168;51.120;17.024;2023-08-24T04:30:00;11.4;;;8.0;;
68319;SDS011;55168;51.120;17.024;2023-08-24T04:31:00;9.9;;;7.7;;
68319;SDS011;55168;51.120;17.024;2023-08-24T04:32:00;9.9;;;7.7;;
68319;SDS011;55168;51.120;17.024;2023-08-24T04:33:00;9.9;;;7.7;;
68319;SDS011;55168;51.120;17.024;2023-08-24T04:34:00;9.9;;;7.7;;
68319;SDS011;55168;51.120;17.024;2023-08-24T04:35:00;9.9;;;7.7;;
68319;SDS011;55168;51.120;17.024;2023-08-24T04:36:02;10.7;;;8.1;;
68319;SDS011;55168;51.120;17.024;2023-08-24T04:37:00;10.7;;;8.1;;
68319;SDS011;55168;51.120;17.024;2023-08-24T04:38:00;10.7;;;8.1;;
68319;SDS011;55168;51.120;17.024;2023-08-24T04:39:00;10.7;;;8.1;;
68319;SDS011;55168;51.120;17.024;2023-08-24T04:40:00;10.7;;;8.1;;
68319;SDS011;55168;51.120;17.024;2023-08-24T04:41:00;10.3;;;7.8;;
68319;SDS011;55168;51.120;17.024;2023-08-24T04:42:00;10.3;;;7.8;;
68319;SDS011;55168;51.120;17.024;2023-08-24T04:43:00;10.3;;;7.8;;
68319;SDS011;55168;51.120;17.024;2023-08-24T04:44:00;10.3;;;7.8;;
68319;SDS011;55168;51.120;17.024;2023-08-24T04:45:00;10.3;;;7.8;;
68319;SDS011;55168;51.120;17.024;2023-08-24T04:46:00;9.3;;;7.7;;
68319;SDS011;55168;51.120;17.024;2023-08-24T04:47:00;9.3;;;7.7;;
68319;SDS011;55168;51.120;17.024;2023-08-24T04:48:00;9.3;;;7.7;;
68319;SDS011;55168;51.120;17.024;2023-08-24T04:49:00;9.3;;;7.7;;
68319;SDS011;55168;51.120;17.024;2023-08-24T04:50:00;9.3;;;7.7;;
68319;SDS011;55168;51.120;17.024;2023-08-24T04:51:00;10.3;;;7.1;;
68319;SDS011;55168;51.120;17.024;2023-08-24T04:52:00;10.3;;;7.1;;
68319;SDS011;55168;51.120;17.024;2023-08-24T04:53:00;10.3;;;7.1;;
68319;SDS011;55168;51.120;17.024;2023-08-24T04:54:00;10.3;;;7.1;;
68319;SDS011;55168;51.120;17.024;2023-08-24T04:55:00;10.3;;;7.1;;
68319;SDS011;55168;51.120;17.024;2023-08-24T04:56:00;14.1;;;8.2;;
68319;SDS011;55168;51.120;17.024;2023-08-24T04:57:00;14.1;;;8.2;;
68319;SDS011;55168;51.120;17.024;2023-08-24T04:58:00;14.1;;;8.2;;
68319;SDS011;55168;51.120;17.024;2023-08-24T04:59:00;14.1;;;8.2;;
68319;SDS011;55168;51.120;17.024;2023-08-24T05:00:00;14.1;;;8.2;;
68319;SDS011;55168;51.120;17.024;2023-08-24T05:01:00;9.6;;;7.5;;
68319;SDS011;55168;51.120;17.024;2023-08-24T05:02:00;9.6;;;7.5;;
68319;SDS011;55168;51.120;17.024;2023-08-24T05:03:00;9.6;;;7.5;;
68319;SDS011;55168;51.120;17.024;2023-08-24T05:04:00;9.6;;;7.5;;
68319;SDS011;55168;51.120;17.024;2023-08-24T05:05:00;9.6;;;7.5;;
68319;SDS011;55168;51.120;17.024;2023-08-24T05:06:00;8.8;;;6.9;;
68319;SDS011;55168;51.120;17.024;2023-08-24T05:07:00;8.8;;;6.9;;
68319;SDS011;55168;51.120;17.024;2023-08-24T05:08:01;8.8;;;6.9;;
68319;SDS011;55168;51.120;17.024;2023-08-24T05:09:00;8.8;;;6.9;;
68319;SDS011;55168;51.120;17.024;2023-08-24T05:10:00;8.8;;;6.9;;
68319;SDS011;55168;51.120;17.024;2023-08-24T05:11:00;9.8;;;6.6;;
68319;SDS011;55168;51.120;17.024;2023-08-24T05:12:00;9.8;;;6.6;;
68319;SDS011;55168;51.120;17.024;2023-08-24T05:13:00;9.8;;;6.6;;
68319;SDS011;55168;51.120;17.024;2023-08-24T05:14:00;9.8;;;6.6;;
68319;SDS011;55168;51.120;17.024;2023-08-24T05:15:00;9.8;;;6.6;;
68319;SDS011;55168;51.120;17.024;2023-08-24T05:16:00;8.4;;;6.4;;
68319;SDS011;55168;51.120;17.024;2023-08-24T05:17:00;8.4;;;6.4;;
68319;SDS011;55168;51.120;17.024;2023-08-24T05:18:00;8.4;;;6.4;;
68319;SDS011;55168;51.120;17.024;2023-08-24T05:19:00;8.4;;;6.4;;
68319;SDS011;55168;51.120;17.024;2023-08-24T05:20:00;8.4;;;6.4;;
68319;SDS011;55168;51.120;17.024;2023-08-24T05:21:00;8.7;;;6.1;;
68319;SDS011;55168;51.120;17.024;2023-08-24T05:22:00;8.7;;;6.1;;
68319;SDS011;55168;51.120;17.024;2023-08-24T05:23:00;8.7;;;6.1;;
68319;SDS011;55168;51.120;17.024;2023-08-24T05:24:00;8.7;;;6.1;;
68319;SDS011;55168;51.120;17.024;2023-08-24T05:25:00;8.7;;;6.1;;
68319;SDS011;55168;51.120;17.024;2023-08-24T05:26:01;10.0;;;6.4;;
68319;SDS011;55168;51.120;17.024;2023-08-24T05:27:00;10.0;;;6.4;;
68319;SDS011;55168;51.120;17.024;2023-08-24T05:28:00;10.0;;;6.4;;
68319;SDS011;55168;51.120;17.024;2023-08-24T05:29:00;10.0;;;6.4;;
68319;SDS011;55168;51.120;17.024;2023-08-24T05:30:00;10.0;;;6.4;;
68319;SDS011;55168;51.120;17.024;2023-08-24T05:31:00;7.6;;;5.9;;
68319;SDS011;55168;51.120;17.024;2023-08-24T05:32:00;7.6;;;5.9;;
68319;SDS011;55168;51.120;17.024;2023-08-24T05:33:00;7.6;;;5.9;;
68319;SDS011;55168;51.120;17.024;2023-08-24T05:34:00;7.6;;;5.9;;
68319;SDS011;55168;51.120;17.024;2023-08-24T05:35:00;7.6;;;5.9;;
68319;SDS011;55168;51.120;17.024;2023-08-24T05:36:00;10.1;;;6.1;;
68319;SDS011;55168;51.120;17.024;2023-08-24T05:37:00;10.1;;;6.1;;
68319;SDS011;55168;51.120;17.024;2023-08-24T05:38:00;10.1;;;6.1;;
68319;SDS011;55168;51.120;17.024;2023-08-24T05:39:00;10.1;;;6.1;;
68319;SDS011;55168;51.120;17.024;2023-08-24T05:40:01;10.1;;;6.1;;
68319;SDS011;55168;51.120;17.024;2023-08-24T05:41:00;9.1;;;5.8;;
68319;SDS011;55168;51.120;17.024;2023-08-24T05:42:00;9.1;;;5.8;;
68319;SDS011;55168;51.120;17.024;2023-08-24T05:43:00;9.1;;;5.8;;
68319;SDS011;55168;51.120;17.024;2023-08-24T05:44:00;9.1;;;5.8;;
68319;SDS011;55168;51.120;17.024;2023-08-24T05:45:00;9.1;;;5.8;;
68319;SDS011;55168;51.120;17.024;2023-08-24T05:46:00;9.9;;;5.9;;
68319;SDS011;55168;51.120;17.024;2023-08-24T05:47:00;9.9;;;5.9;;
68319;SDS011;55168;51.120;17.024;2023-08-24T05:48:00;9.9;;;5.9;;
68319;SDS011;55168;51.120;17.024;2023-08-24T05:49:00;9.9;;;5.9;;
68319;SDS011;55168;51.120;17.024;2023-08-24T05:50:00;9.9;;;5.9;;
68319;SDS011;55168;51.120;17.024;2023-08-24T05:51:00;8.0;;;5.7;;
68319;SDS011;55168;51.120;17.024;2023-08-24T05:52:00;8.0;;;5.7;;
68319;SDS011;55168;51.120;17.024;2023-08-24T05:53:00;8.0;;;5.7;;
68319;SDS011;55168;51.120;17.024;2023-08-24T05:54:00;8.0;;;5.7;;
68319;SDS011;55168;51.120;17.024;2023-08-24T05:55:00;8.0;;;5.7;;
68319;SDS011;55168;51.120;17.024;2023-08-24T05:56:00;7.2;;;5.6;;
68319;SDS011;55168;51.120;17.024;2023-08-24T05:57:00;7.2;;;5.6;;
68319;SDS011;55168;51.120;17.024;2023-08-24T05:58:00;7.2;;;5.6;;
68319;SDS011;55168;51.120;17.024;2023-08-24T05:59:00;7.2;;;5.6;;
68319;SDS011;55168;51.120;17.024;2023-08-24T06:00:00;7.2;;;5.6;;
68319;SDS011;55168;51.120;17.024;2023-08-24T06:01:00;10.4;;;6.0;;
68319;SDS011;55168;51.120;17.024;2023-08-24T06:02:00;10.4;;;6.0;;
68319;SDS011;55168;51.120;17.024;2023-08-24T06:03:00;10.4;;;6.0;;
68319;SDS011;55168;51.120;17.024;2023-08-24T06:04:00;10.4;;;6.0;;
68319;SDS011;55168;51.120;17.024;2023-08-24T06:05:00;10.4;;;6.0;;
68319;SDS011;55168;51.120;17.024;2023-08-24T06:06:00;8.8;;;5.6;;